createdAt,value
2022-08-29T00:00:38.645Z,20.90
2022-08-29T00:03:08.882Z,20.80
2022-08-29T00:05:37.526Z,20.80
2022-08-29T00:08:06.337Z,20.80
2022-08-29T00:10:34.312Z,20.90
2022-08-29T00:13:01.831Z,20.80
2022-08-29T00:15:28.837Z,20.90
2022-08-29T00:17:55.947Z,20.90
2022-08-29T00:20:30.253Z,20.80
2022-08-29T00:23:02.536Z,20.70
2022-08-29T00:25:29.522Z,20.80
2022-08-29T00:27:56.342Z,20.90
2022-08-29T00:30:24.594Z,20.70
2022-08-29T00:32:52.177Z,20.80
2022-08-29T00:35:24.254Z,20.90
2022-08-29T00:37:52.143Z,20.80
2022-08-29T00:40:26.619Z,20.80
2022-08-29T00:42:53.697Z,20.90
2022-08-29T00:45:20.700Z,20.80
2022-08-29T00:48:11.723Z,20.80
2022-08-29T00:50:50.193Z,20.70
2022-08-29T00:53:20.727Z,20.80
2022-08-29T00:55:48.278Z,20.70
2022-08-29T00:58:26.585Z,20.70
2022-08-29T01:00:54.194Z,20.80
2022-08-29T01:03:21.177Z,20.80
2022-08-29T01:05:48.996Z,20.80
2022-08-29T01:08:16.347Z,20.70
2022-08-29T01:11:02.458Z,20.70
2022-08-29T01:13:36.314Z,20.70
2022-08-29T01:16:05.062Z,20.70
2022-08-29T01:18:34.236Z,20.50
2022-08-29T01:21:19.949Z,20.70
2022-08-29T01:24:01.237Z,20.70
2022-08-29T01:26:29.700Z,20.60
2022-08-29T01:28:57.196Z,20.60
2022-08-29T01:31:38.577Z,20.50
2022-08-29T01:34:17.397Z,20.70
2022-08-29T01:37:03.516Z,20.60
2022-08-29T01:39:36.759Z,20.60
2022-08-29T01:42:09.979Z,20.60
2022-08-29T01:44:37.474Z,20.70
2022-08-29T01:47:05.883Z,20.70
2022-08-29T01:49:34.844Z,20.60
2022-08-29T01:52:06.326Z,20.60
2022-08-29T01:54:34.231Z,20.70
2022-08-29T01:57:01.695Z,20.60
2022-08-29T01:59:30.598Z,20.50
2022-08-29T02:02:03.066Z,20.50
2022-08-29T02:04:30.265Z,20.40
2022-08-29T02:06:57.501Z,20.50
2022-08-29T02:09:25.473Z,20.50
2022-08-29T02:11:54.367Z,20.50
2022-08-29T02:14:22.138Z,20.50
2022-08-29T02:16:49.368Z,20.60
2022-08-29T02:19:17.440Z,20.50
2022-08-29T02:21:44.624Z,20.40
2022-08-29T02:24:24.932Z,20.40
2022-08-29T02:26:54.511Z,20.30
2022-08-29T02:29:21.539Z,20.30
2022-08-29T02:31:48.806Z,20.40
2022-08-29T02:34:16.024Z,20.50
2022-08-29T02:36:43.994Z,20.60
2022-08-29T02:39:12.069Z,20.50
2022-08-29T02:41:39.187Z,20.30
2022-08-29T02:44:07.997Z,20.40
2022-08-29T02:46:34.871Z,20.40
2022-08-29T02:49:01.750Z,20.50
2022-08-29T02:51:31.261Z,20.40
2022-08-29T02:53:58.998Z,20.40
2022-08-29T02:56:26.340Z,20.30
2022-08-29T02:58:53.193Z,20.40
2022-08-29T03:01:21.837Z,20.30
2022-08-29T03:03:50.417Z,20.40
2022-08-29T03:06:18.488Z,20.40
2022-08-29T03:08:45.462Z,20.50
2022-08-29T03:11:12.426Z,20.50
2022-08-29T03:13:39.295Z,20.40
2022-08-29T03:16:06.321Z,20.40
2022-08-29T03:18:33.246Z,20.20
2022-08-29T03:21:00.142Z,20.20
2022-08-29T03:23:27.365Z,20.20
2022-08-29T03:25:55.386Z,20.20
2022-08-29T03:28:22.345Z,20.20
2022-08-29T03:30:49.111Z,20.20
2022-08-29T03:33:16.965Z,20.20
2022-08-29T03:35:43.775Z,20.10
2022-08-29T03:38:10.711Z,20.20
2022-08-29T03:40:40.271Z,20.10
2022-08-29T03:43:07.318Z,20.10
2022-08-29T03:45:34.082Z,20.20
2022-08-29T03:48:00.877Z,20.20
2022-08-29T03:50:27.665Z,20.30
2022-08-29T03:52:54.502Z,20.40
2022-08-29T03:55:21.342Z,20.40
2022-08-29T03:57:48.392Z,20.50
2022-08-29T04:00:17.842Z,20.40
2022-08-29T04:02:48.359Z,20.50
2022-08-29T04:05:18.136Z,20.50
2022-08-29T04:08:03.266Z,20.50
2022-08-29T04:10:34.738Z,20.40
2022-08-29T04:13:01.914Z,20.40
2022-08-29T04:15:30.559Z,20.30
2022-08-29T04:17:59.890Z,20.20
2022-08-29T04:20:29.782Z,20.20
2022-08-29T04:22:59.374Z,20.30
2022-08-29T04:25:27.994Z,20.30
2022-08-29T04:27:55.790Z,20.40
2022-08-29T04:30:25.292Z,20.40
2022-08-29T04:32:52.375Z,20.40
2022-08-29T04:35:19.873Z,20.40
2022-08-29T04:37:47.050Z,20.30
2022-08-29T04:40:16.810Z,20.40
2022-08-29T04:42:44.618Z,20.40
2022-08-29T04:45:13.480Z,20.40
2022-08-29T04:47:41.653Z,20.40
2022-08-29T04:50:11.410Z,20.30
2022-08-29T04:52:39.030Z,20.20
2022-08-29T04:55:07.662Z,20.30
2022-08-29T04:57:36.095Z,20.50
2022-08-29T05:00:06.495Z,20.30
2022-08-29T05:02:33.462Z,20.30
2022-08-29T05:05:00.363Z,20.20
2022-08-29T05:07:27.764Z,20.30
2022-08-29T05:10:01.010Z,20.10
2022-08-29T05:12:30.504Z,20.20
2022-08-29T05:14:57.637Z,20.10
2022-08-29T05:17:25.074Z,20.10
2022-08-29T05:19:52.667Z,20.10
2022-08-29T05:22:20.994Z,20.10
2022-08-29T05:24:48.971Z,20.10
2022-08-29T05:27:19.103Z,20.10
2022-08-29T05:29:47.852Z,20.30
2022-08-29T05:32:15.470Z,20.20
2022-08-29T05:34:43.452Z,20.10
2022-08-29T05:37:14.665Z,20.10
2022-08-29T05:39:42.933Z,20.10
2022-08-29T05:42:11.381Z,20.10
2022-08-29T05:44:39.404Z,20.20
2022-08-29T05:47:10.825Z,20.20
2022-08-29T05:49:39.644Z,20.10
2022-08-29T05:52:07.246Z,20.20
2022-08-29T05:54:36.688Z,20.20
2022-08-29T05:57:04.480Z,20.30
2022-08-29T05:59:31.438Z,20.30
2022-08-29T06:01:58.617Z,20.30
2022-08-29T06:04:25.530Z,20.30
2022-08-29T06:06:52.367Z,20.30
2022-08-29T06:09:19.271Z,20.30
2022-08-29T06:11:48.138Z,20.40
2022-08-29T06:14:16.121Z,20.20
2022-08-29T06:16:43.146Z,20.20
2022-08-29T06:19:10.214Z,20.20
2022-08-29T06:21:37.044Z,20.20
2022-08-29T06:24:04.931Z,20.20
2022-08-29T06:26:31.991Z,20.30
2022-08-29T06:28:58.875Z,20.30
2022-08-29T06:31:29.233Z,20.40
2022-08-29T06:33:59.200Z,20.50
2022-08-29T06:36:27.952Z,20.40
2022-08-29T06:38:58.780Z,20.30
2022-08-29T06:41:26.757Z,20.40
2022-08-29T06:43:55.676Z,20.40
2022-08-29T06:46:45.863Z,20.50
2022-08-29T06:49:16.542Z,20.40
2022-08-29T06:51:49.074Z,20.50
2022-08-29T06:54:16.997Z,20.40
2022-08-29T06:56:45.537Z,20.50
2022-08-29T06:59:12.997Z,20.50
2022-08-29T07:01:43.566Z,20.60
2022-08-29T07:04:14.513Z,20.70
2022-08-29T07:06:42.356Z,20.70
2022-08-29T07:09:09.944Z,20.60
2022-08-29T07:11:41.146Z,20.70
2022-08-29T07:14:08.591Z,20.60
2022-08-29T07:16:35.872Z,20.60
2022-08-29T07:19:04.610Z,20.60
2022-08-29T07:21:31.856Z,20.60
2022-08-29T07:23:58.940Z,20.50
2022-08-29T07:26:32.413Z,20.80
2022-08-29T07:29:03.144Z,20.90
2022-08-29T07:31:31.298Z,21.00
2022-08-29T07:34:02.790Z,21.00
2022-08-29T07:36:34.462Z,21.10
2022-08-29T07:39:02.237Z,21.20
2022-08-29T07:41:29.061Z,21.20
2022-08-29T07:43:56.064Z,21.30
2022-08-29T07:46:23.114Z,21.30
2022-08-29T07:48:51.083Z,21.20
2022-08-29T07:51:20.103Z,21.20
2022-08-29T07:53:47.157Z,21.40
2022-08-29T07:56:22.745Z,21.50
2022-08-29T07:58:52.302Z,21.30
2022-08-29T08:01:21.385Z,21.40
2022-08-29T08:03:50.223Z,21.60
2022-08-29T08:06:19.618Z,21.80
2022-08-29T08:08:47.737Z,21.70
2022-08-29T08:11:14.781Z,21.60
2022-08-29T08:13:41.853Z,21.60
2022-08-29T08:16:16.001Z,21.70
2022-08-29T08:18:43.839Z,21.70
2022-08-29T08:21:11.904Z,21.70
2022-08-29T08:23:38.995Z,21.50
2022-08-29T08:26:06.913Z,21.60
2022-08-29T08:28:34.166Z,21.60
2022-08-29T08:31:05.903Z,21.60
2022-08-29T08:33:35.191Z,21.90
2022-08-29T08:36:12.301Z,22.00
2022-08-29T08:38:39.419Z,22.20
2022-08-29T08:41:16.793Z,22.10
2022-08-29T08:43:48.989Z,22.10
2022-08-29T08:46:16.490Z,22.20
2022-08-29T08:48:44.060Z,22.20
2022-08-29T08:51:33.338Z,22.30
2022-08-29T08:54:04.330Z,22.30
2022-08-29T08:56:31.133Z,22.40
2022-08-29T08:59:05.265Z,22.40
2022-08-29T09:01:47.905Z,22.50
2022-08-29T09:04:32.176Z,22.60
2022-08-29T09:07:37.115Z,22.80
2022-08-29T09:10:10.816Z,22.80
2022-08-29T09:13:19.356Z,22.50
2022-08-29T09:15:50.208Z,22.60
2022-08-29T09:18:41.534Z,22.80
2022-08-29T09:21:39.595Z,23.10
2022-08-29T09:24:05.520Z,23.30
2022-08-29T09:26:32.470Z,23.10
2022-08-29T09:28:59.309Z,23.10
2022-08-29T09:31:27.882Z,23.10
2022-08-29T09:34:05.019Z,22.80
2022-08-29T09:36:41.823Z,23.00
2022-08-29T09:39:28.506Z,23.30
2022-08-29T09:42:13.622Z,23.40
2022-08-29T09:44:50.805Z,23.30
2022-08-29T09:47:22.200Z,23.10
2022-08-29T09:50:18.860Z,23.10
2022-08-29T09:52:56.126Z,23.50
2022-08-29T09:55:29.346Z,23.40
2022-08-29T09:58:22.429Z,23.50
2022-08-29T10:01:12.305Z,23.50
2022-08-29T10:03:53.638Z,23.80
2022-08-29T10:06:24.419Z,23.60
2022-08-29T10:09:11.259Z,23.80
2022-08-29T10:11:46.044Z,23.90
2022-08-29T10:14:36.124Z,24.30
2022-08-29T10:17:43.193Z,24.10
2022-08-29T10:20:11.691Z,24.00
2022-08-29T10:22:53.776Z,24.20
2022-08-29T10:25:32.746Z,24.30
2022-08-29T10:28:02.599Z,24.60
2022-08-29T10:31:14.128Z,24.60
2022-08-29T10:33:47.342Z,24.50
2022-08-29T10:36:29.512Z,24.40
2022-08-29T10:39:15.965Z,24.60
2022-08-29T10:42:00.504Z,24.90
2022-08-29T10:45:04.533Z,25.00
2022-08-29T10:47:43.366Z,24.90
2022-08-29T10:50:44.976Z,24.90
2022-08-29T10:53:16.998Z,24.80
2022-08-29T10:56:03.151Z,25.20
2022-08-29T10:58:47.875Z,25.20
2022-08-29T11:01:18.171Z,25.40
2022-08-29T11:03:52.782Z,25.30
2022-08-29T11:06:26.229Z,25.10
2022-08-29T11:09:31.529Z,25.20
2022-08-29T11:12:19.702Z,25.50
2022-08-29T11:14:57.853Z,25.30
2022-08-29T11:17:29.786Z,25.30
2022-08-29T11:20:12.416Z,25.40
2022-08-29T11:22:59.490Z,25.80
2022-08-29T11:25:28.107Z,25.60
2022-08-29T11:28:06.535Z,25.70
2022-08-29T11:30:48.087Z,25.70
2022-08-29T11:33:30.018Z,25.80
2022-08-29T11:36:08.543Z,25.40
2022-08-29T11:39:08.017Z,25.80
2022-08-29T11:41:45.837Z,25.80
2022-08-29T11:44:36.365Z,25.90
2022-08-29T11:47:43.394Z,26.10
2022-08-29T11:50:16.263Z,26.30
2022-08-29T11:52:56.716Z,26.20
2022-08-29T11:55:34.289Z,26.00
2022-08-29T11:58:15.231Z,26.40
2022-08-29T12:00:46.120Z,26.50
2022-08-29T12:03:35.352Z,26.40
2022-08-29T12:06:21.255Z,26.30
2022-08-29T12:09:04.772Z,26.50
2022-08-29T12:12:04.474Z,26.40
2022-08-29T12:14:37.887Z,26.30
2022-08-29T12:17:58.309Z,26.60
2022-08-29T12:20:38.436Z,26.90
2022-08-29T12:23:12.875Z,26.80
2022-08-29T12:25:44.723Z,26.90
2022-08-29T12:28:46.660Z,26.50
2022-08-29T12:31:22.058Z,27.20
2022-08-29T12:33:59.526Z,27.10
2022-08-29T12:36:32.050Z,26.80
2022-08-29T12:39:10.893Z,26.90
2022-08-29T12:42:08.441Z,26.80
2022-08-29T12:44:39.704Z,26.90
2022-08-29T12:47:13.078Z,26.90
2022-08-29T12:49:51.371Z,27.10
2022-08-29T12:52:27.974Z,27.30
2022-08-29T12:54:57.344Z,27.30
2022-08-29T12:57:34.522Z,27.50
2022-08-29T13:00:05.386Z,27.20
2022-08-29T13:02:37.996Z,27.40
2022-08-29T13:05:26.931Z,27.10
2022-08-29T13:08:10.977Z,27.10
2022-08-29T13:10:52.290Z,27.10
2022-08-29T13:13:21.514Z,27.50
2022-08-29T13:15:57.349Z,27.30
2022-08-29T13:18:24.308Z,27.40
2022-08-29T13:21:11.403Z,27.40
2022-08-29T13:23:46.005Z,27.30
2022-08-29T13:26:14.073Z,27.70
2022-08-29T13:28:43.702Z,27.70
2022-08-29T13:31:16.291Z,27.70
2022-08-29T13:33:46.255Z,27.60
2022-08-29T13:36:49.316Z,27.50
2022-08-29T13:39:25.432Z,27.50
2022-08-29T13:42:01.462Z,27.60
2022-08-29T13:44:33.146Z,27.80
2022-08-29T13:47:04.240Z,27.90
2022-08-29T13:49:34.478Z,27.80
2022-08-29T13:52:02.814Z,28.00
2022-08-29T13:54:31.258Z,27.90
2022-08-29T13:56:59.759Z,28.00
2022-08-29T13:59:31.357Z,27.90
2022-08-29T14:02:10.244Z,27.90
2022-08-29T14:04:39.869Z,27.80
2022-08-29T14:07:11.355Z,28.10
2022-08-29T14:09:42.148Z,28.30
2022-08-29T14:12:09.753Z,28.20
2022-08-29T14:14:36.802Z,28.20
2022-08-29T14:17:04.270Z,27.60
2022-08-29T14:19:32.379Z,27.60
2022-08-29T14:22:00.358Z,27.70
2022-08-29T14:24:29.186Z,27.90
2022-08-29T14:27:01.088Z,27.60
2022-08-29T14:29:30.660Z,27.40
2022-08-29T14:31:58.944Z,27.80
2022-08-29T14:34:30.683Z,27.90
2022-08-29T14:36:59.192Z,27.90
2022-08-29T14:39:26.270Z,28.20
2022-08-29T14:41:54.433Z,28.00
2022-08-29T14:44:21.960Z,28.10
2022-08-29T14:46:49.313Z,28.20
2022-08-29T14:49:16.444Z,28.00
2022-08-29T14:51:44.388Z,27.80
2022-08-29T14:54:12.105Z,27.80
2022-08-29T14:56:49.882Z,28.00
2022-08-29T14:59:18.803Z,28.10
2022-08-29T15:01:49.903Z,28.30
2022-08-29T15:04:21.704Z,28.20
2022-08-29T15:07:03.059Z,27.70
2022-08-29T15:09:29.802Z,27.50
2022-08-29T15:11:56.681Z,27.10
2022-08-29T15:14:23.516Z,27.10
2022-08-29T15:16:50.313Z,26.70
2022-08-29T15:20:03.670Z,26.80
2022-08-29T15:22:05.250Z,26.70
2022-08-29T15:24:32.659Z,26.30
2022-08-29T15:26:59.733Z,26.40
2022-08-29T15:29:27.886Z,26.60
2022-08-29T15:31:57.236Z,26.60
2022-08-29T15:34:28.316Z,26.70
2022-08-29T15:36:56.311Z,26.70
2022-08-29T15:39:25.434Z,26.40
2022-08-29T15:41:52.329Z,26.60
2022-08-29T15:44:19.237Z,26.80
2022-08-29T15:46:50.388Z,26.30
2022-08-29T15:49:18.253Z,26.30
2022-08-29T15:51:45.006Z,26.20
2022-08-29T15:54:12.374Z,26.30
2022-08-29T15:56:39.141Z,26.20
2022-08-29T15:59:07.954Z,26.20
2022-08-29T16:01:41.312Z,26.10
2022-08-29T16:04:09.755Z,26.10
2022-08-29T16:06:37.207Z,26.00
2022-08-29T16:09:09.075Z,26.00
2022-08-29T16:11:45.299Z,26.00
2022-08-29T16:14:57.374Z,26.00
2022-08-29T16:16:59.763Z,26.00
2022-08-29T16:19:26.692Z,26.00
2022-08-29T16:21:53.871Z,26.00
2022-08-29T16:24:21.795Z,26.00
2022-08-29T16:26:48.711Z,25.80
2022-08-29T16:29:15.568Z,25.80
2022-08-29T16:31:54.189Z,25.80
2022-08-29T16:34:22.770Z,25.80
2022-08-29T16:36:49.899Z,25.80
2022-08-29T16:39:16.741Z,25.70
2022-08-29T16:41:45.189Z,25.70
2022-08-29T16:44:12.022Z,25.60
2022-08-29T16:46:38.806Z,25.70
2022-08-29T16:49:05.934Z,25.70
2022-08-29T16:51:32.918Z,25.60
2022-08-29T16:54:00.411Z,25.70
2022-08-29T16:56:27.665Z,25.60
2022-08-29T16:59:01.581Z,25.60
2022-08-29T17:01:38.107Z,25.60
2022-08-29T17:04:08.655Z,25.50
2022-08-29T17:06:35.593Z,25.60
2022-08-29T17:09:07.827Z,25.40
2022-08-29T17:11:36.964Z,25.40
2022-08-29T17:14:04.911Z,25.40
2022-08-29T17:16:31.992Z,25.40
2022-08-29T17:18:59.850Z,25.30
2022-08-29T17:21:27.169Z,25.30
2022-08-29T17:23:55.220Z,25.30
2022-08-29T17:26:23.123Z,25.30
2022-08-29T17:28:50.419Z,25.10
2022-08-29T17:31:17.582Z,25.10
2022-08-29T17:33:45.969Z,25.10
2022-08-29T17:36:13.589Z,25.10
2022-08-29T17:38:45.630Z,25.00
2022-08-29T17:41:21.081Z,24.90
2022-08-29T17:43:49.597Z,24.90
2022-08-29T17:46:18.049Z,24.80
2022-08-29T17:48:45.611Z,24.80
2022-08-29T17:51:12.925Z,24.80
2022-08-29T17:53:41.020Z,24.80
2022-08-29T17:56:13.810Z,24.80
2022-08-29T17:58:41.054Z,24.70
2022-08-29T18:01:15.146Z,24.70
2022-08-29T18:03:44.487Z,24.60
2022-08-29T18:06:12.351Z,24.60
2022-08-29T18:08:48.505Z,24.60
2022-08-29T18:11:16.672Z,24.50
2022-08-29T18:13:44.320Z,24.60
2022-08-29T18:16:12.212Z,24.50
2022-08-29T18:18:39.386Z,24.50
2022-08-29T18:21:06.348Z,24.60
2022-08-29T18:23:33.466Z,24.50
2022-08-29T18:26:00.990Z,24.60
2022-08-29T18:28:27.978Z,24.70
2022-08-29T18:30:55.374Z,24.60
2022-08-29T18:33:22.551Z,24.60
2022-08-29T18:35:49.438Z,24.50
2022-08-29T18:38:16.486Z,24.40
2022-08-29T18:40:44.005Z,24.30
2022-08-29T18:43:12.989Z,24.40
2022-08-29T18:45:41.027Z,24.30
2022-08-29T18:48:08.528Z,24.40
2022-08-29T18:50:36.391Z,24.30
2022-08-29T18:53:15.410Z,24.20
2022-08-29T18:55:50.969Z,24.20
2022-08-29T18:58:19.266Z,24.20
2022-08-29T19:00:46.506Z,24.20
2022-08-29T19:03:14.225Z,24.20
2022-08-29T19:05:46.129Z,24.20
2022-08-29T19:08:13.123Z,24.10
2022-08-29T19:10:39.883Z,24.10
2022-08-29T19:13:08.116Z,24.10
2022-08-29T19:15:41.356Z,24.00
2022-08-29T19:18:10.068Z,24.00
2022-08-29T19:20:55.651Z,24.00
2022-08-29T19:23:22.576Z,24.00
2022-08-29T19:25:49.405Z,23.90
2022-08-29T19:28:17.554Z,24.00
2022-08-29T19:30:44.763Z,24.00
2022-08-29T19:33:12.214Z,23.90
2022-08-29T19:35:39.445Z,23.90
2022-08-29T19:38:07.657Z,23.80
2022-08-29T19:40:35.831Z,23.80
2022-08-29T19:45:54.150Z,23.80
2022-08-29T19:48:21.251Z,23.80
2022-08-29T19:50:48.323Z,23.80
2022-08-29T19:53:24.559Z,23.60
2022-08-29T19:55:55.006Z,23.70
2022-08-29T19:58:22.657Z,23.70
2022-08-29T20:00:57.876Z,23.70
2022-08-29T20:03:24.725Z,23.60
2022-08-29T20:05:51.624Z,23.60
2022-08-29T20:08:18.430Z,23.60
2022-08-29T20:10:50.070Z,23.70
2022-08-29T20:13:17.343Z,23.70
2022-08-29T20:15:44.488Z,23.70
2022-08-29T20:18:12.981Z,23.60
2022-08-29T20:20:39.881Z,23.60
2022-08-29T20:23:07.602Z,23.60
2022-08-29T20:25:35.853Z,23.60
2022-08-29T20:28:04.119Z,23.60
2022-08-29T20:30:33.657Z,23.60
2022-08-29T20:33:00.650Z,23.60
2022-08-29T20:35:46.135Z,23.50
2022-08-29T20:38:13.048Z,23.50
2022-08-29T20:40:46.532Z,23.50
2022-08-29T20:43:17.016Z,23.50
2022-08-29T20:45:44.537Z,23.50
2022-08-29T20:48:12.517Z,23.40
2022-08-29T20:50:39.546Z,23.20
2022-08-29T20:53:07.421Z,23.00
2022-08-29T20:55:34.741Z,22.90
2022-08-29T20:58:01.699Z,23.00
2022-08-29T21:00:28.866Z,23.00
2022-08-29T21:03:14.356Z,23.00
2022-08-29T21:05:42.250Z,23.00
2022-08-29T21:08:20.852Z,22.80
2022-08-29T21:10:49.180Z,22.80
2022-08-29T21:13:17.020Z,22.70
2022-08-29T21:15:44.689Z,22.60
2022-08-29T21:18:13.650Z,22.80
2022-08-29T21:20:53.556Z,22.80
2022-08-29T21:23:22.853Z,22.70
2022-08-29T21:25:54.412Z,22.70
2022-08-29T21:28:21.949Z,22.80
2022-08-29T21:30:49.297Z,22.90
2022-08-29T21:33:16.332Z,22.90
2022-08-29T21:35:43.511Z,22.90
2022-08-29T21:38:11.123Z,22.90
2022-08-29T21:40:44.083Z,22.90
2022-08-29T21:43:17.800Z,22.80
2022-08-29T21:45:44.814Z,22.60
2022-08-29T21:48:11.614Z,22.70
2022-08-29T21:50:38.682Z,22.80
2022-08-29T21:53:05.710Z,22.80
2022-08-29T21:55:32.967Z,22.80
2022-08-29T21:58:01.065Z,22.80
2022-08-29T22:00:32.551Z,22.90
2022-08-29T22:03:01.462Z,22.80
2022-08-29T22:05:28.663Z,22.50
2022-08-29T22:07:58.508Z,22.40
2022-08-29T22:10:28.101Z,22.50
2022-08-29T22:12:55.180Z,22.40
2022-08-29T22:15:41.005Z,22.50
2022-08-29T22:18:09.106Z,22.50
2022-08-29T22:20:37.618Z,22.50
2022-08-29T22:23:05.402Z,22.50
2022-08-29T22:25:32.281Z,22.40
2022-08-29T22:27:59.281Z,22.30
2022-08-29T22:30:31.986Z,22.40
2022-08-29T22:33:01.039Z,22.30
2022-08-29T22:35:28.416Z,22.50
2022-08-29T22:37:55.336Z,22.60
2022-08-29T22:40:22.771Z,22.50
2022-08-29T22:42:49.901Z,22.50
2022-08-29T22:45:18.041Z,22.20
2022-08-29T22:47:46.671Z,22.20
2022-08-29T22:50:18.858Z,22.10
2022-08-29T22:52:46.665Z,22.00
2022-08-29T22:55:16.465Z,22.00
2022-08-29T22:57:45.185Z,21.90
2022-08-29T23:00:15.174Z,21.90
2022-08-29T23:02:42.780Z,21.80
2022-08-29T23:05:10.292Z,21.70
2022-08-29T23:07:37.562Z,21.60
2022-08-29T23:10:07.537Z,21.70
2022-08-29T23:12:37.769Z,21.80
2022-08-29T23:15:07.671Z,21.80
2022-08-29T23:17:34.514Z,21.80
2022-08-29T23:20:01.400Z,21.60
2022-08-29T23:22:28.269Z,21.50
2022-08-29T23:24:58.146Z,21.30
2022-08-29T23:27:28.134Z,21.30
2022-08-29T23:29:55.299Z,21.40
2022-08-29T23:32:22.460Z,21.50
2022-08-29T23:34:49.253Z,21.60
2022-08-29T23:37:16.014Z,21.80
2022-08-29T23:39:42.843Z,21.80
2022-08-29T23:42:09.638Z,21.90
2022-08-29T23:44:36.419Z,21.90
2022-08-29T23:47:03.712Z,22.00
2022-08-29T23:49:31.089Z,22.10
2022-08-29T23:51:57.899Z,22.10
2022-08-29T23:54:26.122Z,22.20
2022-08-29T23:56:53.444Z,22.10
2022-08-29T23:59:38.624Z,22.10
